createdAt,value
2023-03-01T00:00:23.794Z,14.83
2023-03-01T00:05:48.543Z,14.70
2023-03-01T00:11:16.564Z,15.00
2023-03-01T00:16:41.453Z,15.23
2023-03-01T00:22:03.278Z,14.77
2023-03-01T00:27:24.967Z,14.83
2023-03-01T00:32:46.973Z,14.93
2023-03-01T00:38:09.125Z,15.17
2023-03-01T00:43:31.817Z,14.23
2023-03-01T00:48:54.541Z,15.57
2023-03-01T00:54:16.246Z,14.90
2023-03-01T00:59:37.998Z,14.70
2023-03-01T01:05:00.111Z,14.77
2023-03-01T01:10:21.815Z,15.77
2023-03-01T01:15:43.553Z,13.73
2023-03-01T01:21:07.895Z,13.97
2023-03-01T01:26:32.302Z,14.37
2023-03-01T01:31:54.344Z,15.27
2023-03-01T01:37:16.129Z,14.50
2023-03-01T01:42:37.870Z,14.93
2023-03-01T01:48:05.601Z,15.37
2023-03-01T01:53:27.586Z,14.40
2023-03-01T01:58:50.229Z,15.07
2023-03-01T02:04:12.167Z,14.13
2023-03-01T02:09:36.413Z,15.30
2023-03-01T02:14:58.180Z,15.10
2023-03-01T02:20:25.740Z,15.20
2023-03-01T02:26:01.717Z,16.27
2023-03-01T02:31:42.065Z,15.13
2023-03-01T02:37:08.346Z,15.33
2023-03-01T02:42:37.202Z,15.50
2023-03-01T02:47:59.015Z,16.30
2023-03-01T02:53:33.373Z,16.33
2023-03-01T02:58:55.432Z,15.97
2023-03-01T03:04:19.471Z,16.67
2023-03-01T03:09:41.226Z,16.13
2023-03-01T03:15:09.585Z,15.83
2023-03-01T03:20:31.558Z,16.87
2023-03-01T03:25:53.268Z,16.73
2023-03-01T03:31:15.130Z,16.47
2023-03-01T03:36:36.876Z,16.60
2023-03-01T03:41:58.624Z,17.77
2023-03-01T03:47:20.353Z,17.47
2023-03-01T03:52:43.085Z,16.93
2023-03-01T03:58:07.904Z,16.53
2023-03-01T04:03:32.791Z,17.00
2023-03-01T04:08:59.213Z,16.87
2023-03-01T04:14:20.920Z,17.30
2023-03-01T04:19:44.946Z,16.47
2023-03-01T04:25:07.865Z,16.80
2023-03-01T04:30:29.847Z,17.77
2023-03-01T04:35:52.503Z,18.03
2023-03-01T04:41:16.069Z,18.77
2023-03-01T04:46:37.827Z,17.47
2023-03-01T04:52:03.081Z,18.20
2023-03-01T04:57:24.875Z,17.50
2023-03-01T05:02:58.537Z,17.60
2023-03-01T05:08:21.666Z,18.00
2023-03-01T05:13:43.437Z,18.20
2023-03-01T05:19:12.373Z,19.00
2023-03-01T05:24:36.111Z,17.40
2023-03-01T05:29:57.849Z,18.70
2023-03-01T05:35:20.093Z,17.67
2023-03-01T05:40:46.876Z,18.00
2023-03-01T05:46:13.547Z,18.83
2023-03-01T05:51:35.429Z,18.67
2023-03-01T05:56:57.279Z,17.37
2023-03-01T06:02:19.476Z,18.90
2023-03-01T06:07:42.027Z,18.77
2023-03-01T06:13:03.802Z,18.53
2023-03-01T06:18:25.759Z,17.60
2023-03-01T06:23:47.504Z,17.53
2023-03-01T06:29:09.662Z,18.27
2023-03-01T06:34:31.839Z,18.33
2023-03-01T06:39:53.545Z,18.37
2023-03-01T06:45:15.870Z,19.27
2023-03-01T06:50:39.261Z,19.17
2023-03-01T06:56:01.228Z,19.43
2023-03-01T07:01:23.078Z,20.17
2023-03-01T07:06:44.799Z,19.03
2023-03-01T07:12:06.945Z,19.57
2023-03-01T07:17:28.779Z,20.40
2023-03-01T07:22:50.484Z,20.57
2023-03-01T07:28:12.210Z,19.90
2023-03-01T07:33:33.973Z,19.53
2023-03-01T07:38:56.729Z,19.57
2023-03-01T07:44:18.530Z,19.77
2023-03-01T07:49:40.280Z,19.63
2023-03-01T07:55:02.024Z,20.23
2023-03-01T08:00:24.079Z,20.27
2023-03-01T08:05:45.798Z,19.57
2023-03-01T08:11:10.848Z,20.30
2023-03-01T08:16:34.518Z,20.67
2023-03-01T08:21:59.137Z,20.50
2023-03-01T08:27:20.921Z,20.17
2023-03-01T08:32:42.889Z,21.93
2023-03-01T08:38:04.844Z,21.23
2023-03-01T08:43:26.599Z,21.67
2023-03-01T08:48:48.644Z,21.37
2023-03-01T08:54:15.972Z,20.67
2023-03-01T08:59:38.340Z,21.60
2023-03-01T09:05:00.124Z,20.97
2023-03-01T09:10:22.006Z,21.30
2023-03-01T09:15:43.760Z,20.53
2023-03-01T09:21:08.310Z,20.30
2023-03-01T09:26:30.547Z,21.63
2023-03-01T09:31:55.968Z,21.23
2023-03-01T09:37:17.764Z,20.97
2023-03-01T09:42:49.947Z,20.83
2023-03-01T09:48:17.691Z,21.47
2023-03-01T09:53:39.603Z,20.07
2023-03-01T09:59:21.733Z,21.07
2023-03-01T10:04:49.984Z,19.93
2023-03-01T10:10:26.769Z,20.27
2023-03-01T10:15:57.002Z,19.17
2023-03-01T10:21:20.716Z,18.87
2023-03-01T10:26:50.032Z,18.40
2023-03-01T10:32:12.223Z,19.83
2023-03-01T10:37:34.019Z,18.80
2023-03-01T10:42:59.767Z,18.13
2023-03-01T10:48:27.859Z,17.43
2023-03-01T10:53:51.781Z,18.87
2023-03-01T10:59:26.102Z,18.73
2023-03-01T11:05:24.711Z,18.00
2023-03-01T11:10:46.495Z,19.10
2023-03-01T11:16:13.114Z,18.27
2023-03-01T11:21:37.744Z,19.00
2023-03-01T11:27:03.511Z,18.17
2023-03-01T11:32:29.176Z,18.67
2023-03-01T11:38:02.826Z,18.87
2023-03-01T11:43:37.736Z,18.80
2023-03-01T11:49:17.824Z,17.33
2023-03-01T11:55:04.962Z,18.60
2023-03-01T12:00:43.694Z,18.03
2023-03-01T12:06:32.749Z,16.53
2023-03-01T12:12:24.656Z,16.87
2023-03-01T12:18:00.464Z,16.33
2023-03-01T12:23:25.387Z,16.60
2023-03-01T12:29:00.725Z,16.92
2023-03-01T12:34:32.183Z,14.80
2023-03-01T12:40:05.539Z,15.82
2023-03-01T12:45:55.448Z,15.17
2023-03-01T12:51:23.484Z,15.80
2023-03-01T12:56:53.182Z,14.93
2023-03-01T13:02:38.409Z,14.18
2023-03-01T13:08:05.131Z,14.27
2023-03-01T13:13:28.891Z,12.70
2023-03-01T13:18:50.661Z,14.10
2023-03-01T13:24:39.577Z,12.88
2023-03-01T13:30:04.532Z,14.00
2023-03-01T13:35:42.467Z,16.13
2023-03-01T13:41:05.606Z,16.10
2023-03-01T13:46:27.563Z,15.77
2023-03-01T13:51:52.832Z,15.55
2023-03-01T13:57:23.682Z,16.40
2023-03-01T14:02:45.450Z,17.50
2023-03-01T14:08:23.621Z,18.10
2023-03-01T14:14:10.580Z,18.80
2023-03-01T14:19:34.336Z,18.65
2023-03-01T14:25:03.306Z,17.92
2023-03-01T14:30:28.872Z,18.00
2023-03-01T14:35:54.850Z,17.60
2023-03-01T14:41:20.579Z,17.98
2023-03-01T14:46:45.211Z,18.63
2023-03-01T14:52:23.079Z,18.98
2023-03-01T14:57:49.152Z,18.10
2023-03-01T15:03:24.542Z,18.83
2023-03-01T15:08:51.338Z,17.60
2023-03-01T15:14:47.323Z,18.63
2023-03-01T15:20:19.440Z,19.10
2023-03-01T15:25:46.019Z,17.75
2023-03-01T15:31:36.933Z,18.52
2023-03-01T15:37:01.563Z,18.13
2023-03-01T15:42:26.368Z,18.02
2023-03-01T15:47:54.621Z,18.48
2023-03-01T15:53:16.477Z,17.38
2023-03-01T15:58:38.215Z,16.23
2023-03-01T16:03:59.976Z,17.33
2023-03-01T16:09:24.121Z,16.35
2023-03-01T16:14:45.838Z,18.02
2023-03-01T16:20:09.909Z,17.60
2023-03-01T16:25:33.324Z,17.13
2023-03-01T16:30:55.195Z,16.63
2023-03-01T16:36:19.777Z,17.77
2023-03-01T16:41:41.530Z,17.73
2023-03-01T16:47:03.338Z,16.67
2023-03-01T16:52:25.187Z,16.90
2023-03-01T16:57:46.913Z,17.48
2023-03-01T17:03:08.767Z,18.42
2023-03-01T17:08:30.690Z,16.77
2023-03-01T17:13:52.423Z,16.65
2023-03-01T17:19:18.517Z,18.05
2023-03-01T17:24:41.755Z,17.65
2023-03-01T17:30:04.894Z,18.47
2023-03-01T17:35:26.639Z,17.13
2023-03-01T17:40:48.624Z,19.00
2023-03-01T17:46:11.244Z,17.88
2023-03-01T17:51:33.428Z,17.15
2023-03-01T17:56:56.397Z,17.17
2023-03-01T18:02:19.485Z,16.40
2023-03-01T18:07:41.378Z,17.50
2023-03-01T18:13:04.997Z,17.53
2023-03-01T18:18:30.128Z,16.97
2023-03-01T18:23:52.992Z,17.77
2023-03-01T18:29:14.833Z,17.67
2023-03-01T18:34:36.586Z,19.33
2023-03-01T18:39:58.295Z,20.20
2023-03-01T18:45:20.062Z,18.63
2023-03-01T18:50:42.298Z,19.33
2023-03-01T18:56:04.435Z,19.77
2023-03-01T19:01:28.452Z,19.80
2023-03-01T19:06:50.510Z,20.43
2023-03-01T19:12:12.312Z,21.57
2023-03-01T19:17:34.634Z,22.27
2023-03-01T19:22:56.365Z,24.50
2023-03-01T19:28:18.110Z,26.20
2023-03-01T19:33:40.270Z,25.97
2023-03-01T19:39:05.105Z,26.97
2023-03-01T19:44:26.925Z,29.63
2023-03-01T19:49:48.688Z,28.13
2023-03-01T19:55:11.099Z,26.27
2023-03-01T20:00:34.386Z,24.87
2023-03-01T20:05:56.664Z,24.63
2023-03-01T20:11:19.869Z,23.50
2023-03-01T20:16:44.331Z,23.13
2023-03-01T20:22:06.177Z,21.80
2023-03-01T20:27:28.006Z,20.20
2023-03-01T20:32:49.737Z,22.30
2023-03-01T20:38:11.548Z,22.70
2023-03-01T20:43:34.645Z,21.60
2023-03-01T20:48:56.547Z,21.37
2023-03-01T20:54:18.433Z,20.97
2023-03-01T20:59:40.198Z,20.83
2023-03-01T21:05:02.135Z,20.10
2023-03-01T21:10:24.017Z,19.90
2023-03-01T21:15:57.300Z,21.60
2023-03-01T21:21:21.408Z,20.23
2023-03-01T21:26:43.188Z,20.67
2023-03-01T21:32:06.445Z,20.57
2023-03-01T21:37:28.590Z,20.00
2023-03-01T21:42:50.337Z,19.77
2023-03-01T21:48:12.050Z,20.73
2023-03-01T21:53:36.052Z,19.97
2023-03-01T21:58:58.509Z,20.70
2023-03-01T22:04:22.397Z,21.37
2023-03-01T22:09:45.529Z,20.40
2023-03-01T22:15:07.813Z,22.07
2023-03-01T22:20:29.538Z,20.93
2023-03-01T22:25:51.248Z,21.13
2023-03-01T22:31:12.987Z,21.47
2023-03-01T22:36:35.262Z,21.10
2023-03-01T22:41:56.972Z,21.17
2023-03-01T22:47:18.724Z,20.27
2023-03-01T22:52:40.510Z,21.40
2023-03-01T22:58:02.233Z,21.47
2023-03-01T23:03:24.011Z,22.10
2023-03-01T23:08:50.942Z,21.17
2023-03-01T23:14:13.202Z,20.80
2023-03-01T23:19:34.936Z,21.73
2023-03-01T23:24:56.656Z,22.20
2023-03-01T23:30:18.475Z,20.97
2023-03-01T23:35:40.271Z,21.77
2023-03-01T23:41:02.048Z,21.60
2023-03-01T23:46:27.176Z,22.33
2023-03-01T23:51:48.943Z,21.40
2023-03-01T23:57:10.673Z,23.00
